createdAt,value
2023-04-07T00:01:01.623Z,59.06
2023-04-07T00:03:29.042Z,57.82
2023-04-07T00:05:56.337Z,59.03
2023-04-07T00:08:23.525Z,59.48
2023-04-07T00:10:50.808Z,59.78
2023-04-07T00:13:17.949Z,58.20
2023-04-07T00:15:45.148Z,56.16
2023-04-07T00:18:12.445Z,56.21
2023-04-07T00:20:39.816Z,56.11
2023-04-07T00:23:07.042Z,55.59
2023-04-07T00:25:34.193Z,55.08
2023-04-07T00:28:01.384Z,55.76
2023-04-07T00:30:28.617Z,55.71
2023-04-07T00:32:55.841Z,56.17
2023-04-07T00:35:23.221Z,56.04
2023-04-07T00:37:50.568Z,54.31
2023-04-07T00:40:18.337Z,54.02
2023-04-07T00:42:45.508Z,52.99
2023-04-07T00:45:12.832Z,55.47
2023-04-07T00:47:40.602Z,55.02
2023-04-07T00:50:08.871Z,55.42
2023-04-07T00:52:36.811Z,55.01
2023-04-07T00:55:04.238Z,54.62
2023-04-07T00:57:34.297Z,54.30
2023-04-07T01:00:01.651Z,54.21
2023-04-07T01:02:43.295Z,55.97
2023-04-07T01:06:08.153Z,58.26
2023-04-07T01:09:18.495Z,60.63
2023-04-07T01:12:47.475Z,58.99
2023-04-07T01:15:17.767Z,58.46
2023-04-07T01:17:52.966Z,57.58
2023-04-07T01:20:23.377Z,58.21
2023-04-07T01:22:57.185Z,57.01
2023-04-07T01:26:27.953Z,59.07
2023-04-07T01:29:34.462Z,59.85
2023-04-07T01:32:06.343Z,59.29
2023-04-07T01:34:35.040Z,60.08
2023-04-07T01:37:03.928Z,59.31
2023-04-07T01:39:32.538Z,59.69
2023-04-07T01:42:02.316Z,59.89
2023-04-07T01:44:30.177Z,59.80
2023-04-07T01:46:57.927Z,57.98
2023-04-07T01:49:27.253Z,58.00
2023-04-07T01:51:56.002Z,58.52
2023-04-07T01:54:23.995Z,59.11
2023-04-07T01:56:51.080Z,58.55
2023-04-07T01:59:20.512Z,58.54
2023-04-07T02:01:48.725Z,58.94
2023-04-07T02:04:40.436Z,59.89
2023-04-07T02:07:25.187Z,59.33
2023-04-07T02:09:56.556Z,59.87
2023-04-07T02:12:27.379Z,60.13
2023-04-07T02:14:56.682Z,58.48
2023-04-07T02:17:27.017Z,58.77
2023-04-07T02:19:56.778Z,58.66
2023-04-07T02:22:23.983Z,58.99
2023-04-07T02:24:51.181Z,59.30
2023-04-07T02:27:18.518Z,59.36
2023-04-07T02:29:45.681Z,59.43
2023-04-07T02:32:13.889Z,59.12
2023-04-07T02:34:41.958Z,60.64
2023-04-07T02:37:11.185Z,61.09
2023-04-07T02:39:38.277Z,60.95
2023-04-07T02:42:05.517Z,60.80
2023-04-07T02:44:32.701Z,61.82
2023-04-07T02:46:59.810Z,62.51
2023-04-07T02:49:27.086Z,61.80
2023-04-07T02:51:54.189Z,64.18
2023-04-07T02:54:21.561Z,62.09
2023-04-07T02:56:48.598Z,62.76
2023-04-07T02:59:15.812Z,61.81
2023-04-07T03:01:42.923Z,62.64
2023-04-07T03:04:10.110Z,62.11
2023-04-07T03:06:37.217Z,62.93
2023-04-07T03:09:04.577Z,62.37
2023-04-07T03:11:31.699Z,61.67
2023-04-07T03:13:58.773Z,61.51
2023-04-07T03:16:25.881Z,61.35
2023-04-07T03:18:53.118Z,62.70
2023-04-07T03:21:20.141Z,62.35
2023-04-07T03:23:47.181Z,64.33
2023-04-07T03:26:14.317Z,63.42
2023-04-07T03:28:41.626Z,63.13
2023-04-07T03:31:08.947Z,62.69
2023-04-07T03:33:36.372Z,63.07
2023-04-07T03:36:03.713Z,62.58
2023-04-07T03:38:30.895Z,61.80
2023-04-07T03:40:57.935Z,61.07
2023-04-07T03:43:25.389Z,62.05
2023-04-07T03:45:54.363Z,61.67
2023-04-07T03:48:21.666Z,60.82
2023-04-07T03:50:48.822Z,61.39
2023-04-07T03:53:16.771Z,62.98
2023-04-07T03:55:44.331Z,62.69
2023-04-07T03:58:11.993Z,61.98
2023-04-07T04:00:39.399Z,61.27
2023-04-07T04:03:06.715Z,60.95
2023-04-07T04:05:33.839Z,61.41
2023-04-07T04:08:00.857Z,61.98
2023-04-07T04:10:27.901Z,62.54
2023-04-07T04:12:55.102Z,63.84
2023-04-07T04:15:22.239Z,62.93
2023-04-07T04:17:49.327Z,62.93
2023-04-07T04:20:16.457Z,63.37
2023-04-07T04:22:43.640Z,64.08
2023-04-07T04:25:10.794Z,64.92
2023-04-07T04:27:37.875Z,65.25
2023-04-07T04:30:06.157Z,65.81
2023-04-07T04:32:35.287Z,65.16
2023-04-07T04:35:02.398Z,66.07
2023-04-07T04:37:29.484Z,65.77
2023-04-07T04:39:59.619Z,66.77
2023-04-07T04:42:27.879Z,67.55
2023-04-07T04:44:55.243Z,66.44
2023-04-07T04:47:22.366Z,66.87
2023-04-07T04:49:49.445Z,66.65
2023-04-07T04:52:16.486Z,67.67
2023-04-07T04:54:43.600Z,67.58
2023-04-07T04:57:10.900Z,67.02
2023-04-07T04:59:38.087Z,67.33
2023-04-07T05:02:06.043Z,67.44
2023-04-07T05:04:33.520Z,65.35
2023-04-07T05:07:01.013Z,65.98
2023-04-07T05:09:28.035Z,65.96
2023-04-07T05:11:55.748Z,65.71
2023-04-07T05:14:22.802Z,66.64
2023-04-07T05:16:49.833Z,65.54
2023-04-07T05:19:16.897Z,65.60
2023-04-07T05:21:43.942Z,66.42
2023-04-07T05:24:10.984Z,66.36
2023-04-07T05:26:38.055Z,66.19
2023-04-07T05:29:05.180Z,66.11
2023-04-07T05:31:33.496Z,67.65
2023-04-07T05:34:00.994Z,65.93
2023-04-07T05:36:28.091Z,66.64
2023-04-07T05:38:55.360Z,66.47
2023-04-07T05:41:22.416Z,66.01
2023-04-07T05:43:49.637Z,66.19
2023-04-07T05:46:16.852Z,66.53
2023-04-07T05:48:44.130Z,65.66
2023-04-07T05:51:11.198Z,65.73
2023-04-07T05:53:38.239Z,65.22
2023-04-07T05:56:05.970Z,65.71
2023-04-07T05:58:33.226Z,65.65
2023-04-07T06:01:00.372Z,66.04
2023-04-07T06:03:27.525Z,64.28
2023-04-07T06:05:54.706Z,64.33
2023-04-07T06:08:21.988Z,65.18
2023-04-07T06:10:51.318Z,65.32
2023-04-07T06:13:18.512Z,64.95
2023-04-07T06:15:45.756Z,66.50
2023-04-07T06:18:12.836Z,65.51
2023-04-07T06:20:40.074Z,66.68
2023-04-07T06:23:10.267Z,66.20
2023-04-07T06:25:37.534Z,67.54
2023-04-07T06:28:04.690Z,66.21
2023-04-07T06:30:31.779Z,66.67
2023-04-07T06:32:59.152Z,65.41
2023-04-07T06:35:27.515Z,66.09
2023-04-07T06:37:54.649Z,65.67
2023-04-07T06:40:21.693Z,64.83
2023-04-07T06:42:48.815Z,64.91
2023-04-07T06:45:15.942Z,65.08
2023-04-07T06:47:43.282Z,64.01
2023-04-07T06:50:10.818Z,63.26
2023-04-07T06:52:37.898Z,63.77
2023-04-07T06:55:07.640Z,63.42
2023-04-07T06:57:34.774Z,62.45
2023-04-07T07:00:01.810Z,62.64
2023-04-07T07:02:28.930Z,62.38
2023-04-07T07:04:58.350Z,62.42
2023-04-07T07:07:25.951Z,62.27
2023-04-07T07:09:54.174Z,61.61
2023-04-07T07:12:21.254Z,61.54
2023-04-07T07:14:48.320Z,62.33
2023-04-07T07:17:15.532Z,61.91
2023-04-07T07:19:43.338Z,60.72
2023-04-07T07:22:10.773Z,59.53
2023-04-07T07:24:38.146Z,60.03
2023-04-07T07:27:05.517Z,58.66
2023-04-07T07:29:32.673Z,58.32
2023-04-07T07:31:59.718Z,59.13
2023-04-07T07:34:26.931Z,58.83
2023-04-07T07:36:54.005Z,58.63
2023-04-07T07:39:23.546Z,57.45
2023-04-07T07:41:51.610Z,58.04
2023-04-07T07:44:20.308Z,55.84
2023-04-07T07:46:48.513Z,57.03
2023-04-07T07:49:18.246Z,55.98
2023-04-07T07:51:46.679Z,57.17
2023-04-07T07:54:14.208Z,56.00
2023-04-07T07:56:41.430Z,55.87
2023-04-07T07:59:08.536Z,53.96
2023-04-07T08:01:35.878Z,54.68
2023-04-07T08:04:03.093Z,55.00
2023-04-07T08:06:31.473Z,53.64
2023-04-07T08:08:59.334Z,54.11
2023-04-07T08:11:26.460Z,54.41
2023-04-07T08:13:54.290Z,52.82
2023-04-07T08:16:22.308Z,53.50
2023-04-07T08:18:50.005Z,53.88
2023-04-07T08:21:17.412Z,52.68
2023-04-07T08:23:44.596Z,53.40
2023-04-07T08:26:11.648Z,55.18
2023-04-07T08:28:40.287Z,53.34
2023-04-07T08:31:08.450Z,53.91
2023-04-07T08:33:35.587Z,54.80
2023-04-07T08:36:02.634Z,52.75
2023-04-07T08:38:29.700Z,52.03
2023-04-07T08:41:10.095Z,51.24
2023-04-07T08:43:38.542Z,51.60
2023-04-07T08:46:09.350Z,52.77
2023-04-07T08:48:40.571Z,51.99
2023-04-07T08:51:10.361Z,51.69
2023-04-07T08:53:53.718Z,50.71
2023-04-07T08:56:21.931Z,51.87
2023-04-07T08:58:49.649Z,52.29
2023-04-07T09:01:18.201Z,51.87
2023-04-07T09:03:47.220Z,53.84
2023-04-07T09:06:14.984Z,53.06
2023-04-07T09:08:42.213Z,52.67
2023-04-07T09:11:09.291Z,51.74
2023-04-07T09:13:36.368Z,51.63
2023-04-07T09:16:03.918Z,51.22
2023-04-07T09:18:31.230Z,52.33
2023-04-07T09:21:02.948Z,51.36
2023-04-07T09:23:33.814Z,51.84
2023-04-07T09:26:22.827Z,53.62
2023-04-07T09:29:00.003Z,53.38
2023-04-07T09:31:48.411Z,52.46
2023-04-07T09:34:39.711Z,53.59
2023-04-07T09:37:11.989Z,53.43
2023-04-07T09:39:54.018Z,53.85
2023-04-07T09:42:22.325Z,54.67
2023-04-07T09:44:49.868Z,54.80
2023-04-07T09:47:18.302Z,54.83
2023-04-07T09:49:54.552Z,53.84
2023-04-07T09:52:52.396Z,53.04
2023-04-07T09:55:26.911Z,56.30
2023-04-07T09:58:15.559Z,56.68
2023-04-07T10:00:43.918Z,55.54
2023-04-07T10:03:15.995Z,56.60
2023-04-07T10:05:44.546Z,57.27
2023-04-07T10:08:14.392Z,56.62
2023-04-07T10:10:43.885Z,58.40
2023-04-07T10:13:14.183Z,58.97
2023-04-07T10:15:41.584Z,59.88
2023-04-07T10:18:09.164Z,60.43
2023-04-07T10:20:43.857Z,60.91
2023-04-07T10:23:22.213Z,61.17
2023-04-07T10:25:52.668Z,61.80
2023-04-07T10:28:24.738Z,65.45
2023-04-07T10:30:53.046Z,65.94
2023-04-07T10:33:49.756Z,64.25
2023-04-07T10:36:22.284Z,65.22
2023-04-07T10:39:11.045Z,67.54
2023-04-07T10:41:39.947Z,69.46
2023-04-07T10:44:31.194Z,69.43
2023-04-07T10:47:06.482Z,72.28
2023-04-07T10:49:35.014Z,72.20
2023-04-07T10:52:15.019Z,71.57
2023-04-07T10:54:43.949Z,73.52
2023-04-07T10:57:16.935Z,73.41
2023-04-07T11:00:09.813Z,72.04
2023-04-07T11:02:40.467Z,72.51
2023-04-07T11:05:25.112Z,72.94
2023-04-07T11:07:58.307Z,73.75
2023-04-07T11:10:26.178Z,73.23
2023-04-07T11:13:07.945Z,74.11
2023-04-07T11:15:40.628Z,74.25
2023-04-07T11:18:17.734Z,74.91
2023-04-07T11:21:00.833Z,75.76
2023-04-07T11:23:28.478Z,73.48
2023-04-07T11:26:03.164Z,76.85
2023-04-07T11:28:31.779Z,75.69
2023-04-07T11:31:00.028Z,76.50
2023-04-07T11:33:32.170Z,76.43
2023-04-07T11:36:02.723Z,76.43
2023-04-07T11:38:38.221Z,78.07
2023-04-07T11:41:15.695Z,77.98
2023-04-07T11:43:43.144Z,78.49
2023-04-07T11:46:16.710Z,77.52
2023-04-07T11:48:47.183Z,76.84
2023-04-07T11:51:20.296Z,78.77
2023-04-07T11:53:48.235Z,75.30
2023-04-07T11:56:17.442Z,77.60
2023-04-07T11:58:55.561Z,74.48
2023-04-07T12:01:26.023Z,75.93
2023-04-07T12:04:04.536Z,76.73
2023-04-07T12:06:38.775Z,77.49
2023-04-07T12:09:06.408Z,77.18
2023-04-07T12:11:34.629Z,76.17
2023-04-07T12:14:05.127Z,74.92
2023-04-07T12:16:32.277Z,75.46
2023-04-07T12:18:59.453Z,75.86
2023-04-07T12:21:27.542Z,76.51
2023-04-07T12:23:54.595Z,75.05
2023-04-07T12:26:23.403Z,76.47
2023-04-07T12:28:50.695Z,74.81
2023-04-07T12:31:17.963Z,77.09
2023-04-07T12:33:45.288Z,75.26
2023-04-07T12:36:12.671Z,75.15
2023-04-07T12:38:39.798Z,75.12
2023-04-07T12:41:06.859Z,76.00
2023-04-07T12:43:34.760Z,74.93
2023-04-07T12:46:01.886Z,74.06
2023-04-07T12:48:29.018Z,73.51
2023-04-07T12:50:56.265Z,72.76
2023-04-07T12:53:23.618Z,75.21
2023-04-07T12:55:53.041Z,73.60
2023-04-07T12:58:20.341Z,75.94
2023-04-07T13:00:47.683Z,76.23
2023-04-07T13:03:17.487Z,77.00
2023-04-07T13:05:44.896Z,77.34
2023-04-07T13:08:12.044Z,75.50
2023-04-07T13:10:39.251Z,74.93
2023-04-07T13:13:07.267Z,75.81
2023-04-07T13:15:34.440Z,77.15
2023-04-07T13:18:01.840Z,74.62
2023-04-07T13:20:30.341Z,76.55
2023-04-07T13:23:07.838Z,78.39
2023-04-07T13:25:39.210Z,76.41
2023-04-07T13:28:06.641Z,76.85
2023-04-07T13:30:33.858Z,74.20
2023-04-07T13:33:02.549Z,75.80
2023-04-07T13:35:30.983Z,76.32
2023-04-07T13:37:58.393Z,75.36
2023-04-07T13:40:25.685Z,77.54
2023-04-07T13:42:52.733Z,76.92
2023-04-07T13:45:20.034Z,75.77
2023-04-07T13:47:47.467Z,74.80
2023-04-07T13:50:14.663Z,73.65
2023-04-07T13:52:41.798Z,75.27
2023-04-07T13:55:09.675Z,77.18
2023-04-07T13:57:36.752Z,77.77
2023-04-07T14:00:04.572Z,77.13
2023-04-07T14:02:32.760Z,75.82
2023-04-07T14:05:00.008Z,76.39
2023-04-07T14:07:27.080Z,77.94
2023-04-07T14:09:54.525Z,75.41
2023-04-07T14:12:22.204Z,74.15
2023-04-07T14:14:52.128Z,76.21
2023-04-07T14:17:22.242Z,76.63
2023-04-07T14:19:49.331Z,75.40
2023-04-07T14:22:16.462Z,77.24
2023-04-07T14:24:43.680Z,72.55
2023-04-07T14:27:11.180Z,74.91
2023-04-07T14:29:38.207Z,73.91
2023-04-07T14:32:05.338Z,75.89
2023-04-07T14:34:32.390Z,75.47
2023-04-07T14:36:59.817Z,75.47
2023-04-07T14:39:27.005Z,74.24
2023-04-07T14:41:54.111Z,73.91
2023-04-07T14:44:21.340Z,74.42
2023-04-07T14:46:48.664Z,74.71
2023-04-07T14:49:21.134Z,75.56
2023-04-07T14:51:48.453Z,75.72
2023-04-07T14:54:15.505Z,75.17
2023-04-07T14:56:42.566Z,76.50
2023-04-07T14:59:09.620Z,73.91
2023-04-07T15:01:37.604Z,74.08
2023-04-07T15:04:04.868Z,72.34
2023-04-07T15:06:32.232Z,74.12
2023-04-07T15:08:59.304Z,73.44
2023-04-07T15:11:27.328Z,75.64
2023-04-07T15:13:54.474Z,75.14
2023-04-07T15:16:21.638Z,76.63
2023-04-07T15:18:48.839Z,74.05
2023-04-07T15:21:16.466Z,73.94
2023-04-07T15:23:43.690Z,71.37
2023-04-07T15:26:11.383Z,71.87
2023-04-07T15:28:42.005Z,75.73
2023-04-07T15:31:09.956Z,75.20
2023-04-07T15:33:39.742Z,74.81
2023-04-07T15:36:08.783Z,75.81
2023-04-07T15:38:36.515Z,77.81
2023-04-07T15:41:03.894Z,77.70
2023-04-07T15:43:31.004Z,76.29
2023-04-07T15:46:00.498Z,79.46
2023-04-07T15:48:30.705Z,77.75
2023-04-07T15:50:57.850Z,78.35
2023-04-07T15:53:26.121Z,77.11
2023-04-07T15:55:53.249Z,77.10
2023-04-07T15:58:23.030Z,75.29
2023-04-07T16:00:50.334Z,76.60
2023-04-07T16:03:19.945Z,75.51
2023-04-07T16:05:47.430Z,72.91
2023-04-07T16:08:14.769Z,72.88
2023-04-07T16:10:42.176Z,72.93
2023-04-07T16:13:10.773Z,75.50
2023-04-07T16:15:40.733Z,75.07
2023-04-07T16:18:12.164Z,74.82
2023-04-07T16:20:39.686Z,74.55
2023-04-07T16:23:06.786Z,74.41
2023-04-07T16:25:33.910Z,73.94
2023-04-07T16:28:01.109Z,72.77
2023-04-07T16:30:37.592Z,72.67
2023-04-07T16:33:04.795Z,72.44
2023-04-07T16:35:32.305Z,73.38
2023-04-07T16:38:04.396Z,74.38
2023-04-07T16:40:35.101Z,75.28
2023-04-07T16:43:02.300Z,74.32
2023-04-07T16:45:32.994Z,74.90
2023-04-07T16:48:00.919Z,75.53
2023-04-07T16:50:28.402Z,74.50
2023-04-07T16:52:58.370Z,74.74
2023-04-07T16:55:28.887Z,75.61
2023-04-07T16:57:56.074Z,74.36
2023-04-07T17:00:23.215Z,74.14
2023-04-07T17:02:50.399Z,75.90
2023-04-07T17:05:18.127Z,76.77
2023-04-07T17:07:47.579Z,76.08
2023-04-07T17:10:14.773Z,78.23
2023-04-07T17:12:41.835Z,77.08
2023-04-07T17:15:09.788Z,77.95
2023-04-07T17:17:38.106Z,79.34
2023-04-07T17:20:06.042Z,79.77
2023-04-07T17:22:34.543Z,79.00
2023-04-07T17:25:01.613Z,77.31
2023-04-07T17:27:28.640Z,77.02
2023-04-07T17:29:55.988Z,78.52
2023-04-07T17:32:23.084Z,77.79
2023-04-07T17:34:50.198Z,76.03
2023-04-07T17:37:17.295Z,76.11
2023-04-07T17:39:44.335Z,76.69
2023-04-07T17:42:11.465Z,81.57
2023-04-07T17:44:38.592Z,80.99
2023-04-07T17:47:05.650Z,79.95
2023-04-07T17:49:32.711Z,81.50
2023-04-07T17:52:02.840Z,79.24
2023-04-07T17:54:30.502Z,80.54
2023-04-07T17:56:57.965Z,79.98
2023-04-07T17:59:25.066Z,77.80
2023-04-07T18:01:52.311Z,77.64
2023-04-07T18:04:19.507Z,77.43
2023-04-07T18:06:46.893Z,79.01
2023-04-07T18:09:17.034Z,77.52
2023-04-07T18:11:47.713Z,77.91
2023-04-07T18:14:14.782Z,77.61
2023-04-07T18:16:41.846Z,76.86
2023-04-07T18:19:08.913Z,81.28
2023-04-07T18:21:36.300Z,81.81
2023-04-07T18:24:03.435Z,83.67
2023-04-07T18:26:30.480Z,81.73
2023-04-07T18:28:57.698Z,82.05
2023-04-07T18:31:24.943Z,81.43
2023-04-07T18:33:52.201Z,82.23
2023-04-07T18:36:19.505Z,81.59
2023-04-07T18:38:46.599Z,82.74
2023-04-07T18:41:14.216Z,80.21
2023-04-07T18:43:42.092Z,80.44
2023-04-07T18:46:09.230Z,82.08
2023-04-07T18:48:36.426Z,82.50
2023-04-07T18:51:03.814Z,83.15
2023-04-07T18:53:31.330Z,82.25
2023-04-07T18:55:59.087Z,82.44
2023-04-07T18:58:26.316Z,83.48
2023-04-07T19:00:54.501Z,83.84
2023-04-07T19:03:22.300Z,84.27
2023-04-07T19:05:52.377Z,83.16
2023-04-07T19:08:19.856Z,82.85
2023-04-07T19:10:48.048Z,82.52
2023-04-07T19:13:17.795Z,83.75
2023-04-07T19:15:46.213Z,83.36
2023-04-07T19:18:13.633Z,81.81
2023-04-07T19:20:41.074Z,82.79
2023-04-07T19:23:08.162Z,82.90
2023-04-07T19:25:35.381Z,83.41
2023-04-07T19:28:03.415Z,82.78
2023-04-07T19:30:30.478Z,83.28
2023-04-07T19:32:57.716Z,83.61
2023-04-07T19:35:25.525Z,83.76
2023-04-07T19:37:53.589Z,84.41
2023-04-07T19:40:20.738Z,83.66
2023-04-07T19:42:47.763Z,83.02
2023-04-07T19:45:14.892Z,83.02
2023-04-07T19:47:43.513Z,83.66
2023-04-07T19:50:11.815Z,83.07
2023-04-07T19:52:38.876Z,81.49
2023-04-07T19:55:07.136Z,83.25
2023-04-07T19:57:35.787Z,82.45
2023-04-07T20:00:04.321Z,82.00
2023-04-07T20:02:33.836Z,81.16
2023-04-07T20:05:00.969Z,82.58
2023-04-07T20:07:28.063Z,81.90
2023-04-07T20:09:57.555Z,83.09
2023-04-07T20:12:24.856Z,82.17
2023-04-07T20:14:51.946Z,80.51
2023-04-07T20:17:19.917Z,80.08
2023-04-07T20:19:47.843Z,80.60
2023-04-07T20:22:14.962Z,81.69
2023-04-07T20:24:42.092Z,83.17
2023-04-07T20:27:09.166Z,81.40
2023-04-07T20:29:36.602Z,83.17
2023-04-07T20:32:03.678Z,82.38
2023-04-07T20:34:30.993Z,82.39
2023-04-07T20:36:58.585Z,82.33
2023-04-07T20:39:25.701Z,81.94
2023-04-07T20:41:52.796Z,82.20
2023-04-07T20:44:19.992Z,82.29
2023-04-07T20:46:48.297Z,84.38
2023-04-07T20:49:15.582Z,83.57
2023-04-07T20:51:42.631Z,83.95
2023-04-07T20:54:09.792Z,83.85
2023-04-07T20:56:36.927Z,82.49
2023-04-07T20:59:04.026Z,83.28
2023-04-07T21:01:31.530Z,82.63
2023-04-07T21:04:00.768Z,83.76
2023-04-07T21:06:27.957Z,84.45
2023-04-07T21:08:55.071Z,82.88
2023-04-07T21:11:22.113Z,83.28
2023-04-07T21:13:49.224Z,84.34
2023-04-07T21:16:16.357Z,84.11
2023-04-07T21:18:43.590Z,85.31
2023-04-07T21:21:11.308Z,84.78
2023-04-07T21:23:38.618Z,84.11
2023-04-07T21:26:05.872Z,83.95
2023-04-07T21:28:32.923Z,84.84
2023-04-07T21:31:01.255Z,84.58
2023-04-07T21:33:28.501Z,84.96
2023-04-07T21:35:55.733Z,85.39
2023-04-07T21:38:22.819Z,85.26
2023-04-07T21:40:49.949Z,83.90
2023-04-07T21:43:17.088Z,84.40
2023-04-07T21:45:46.938Z,84.52
2023-04-07T21:48:16.075Z,84.88
2023-04-07T21:50:43.525Z,84.44
2023-04-07T21:53:10.591Z,84.63
2023-04-07T21:55:37.757Z,83.53
2023-04-07T21:58:07.603Z,83.70
2023-04-07T22:00:34.843Z,84.25
2023-04-07T22:03:02.335Z,83.65
2023-04-07T22:05:29.590Z,85.42
2023-04-07T22:07:59.894Z,84.22
2023-04-07T22:10:27.084Z,85.50
2023-04-07T22:12:54.414Z,83.57
2023-04-07T22:15:22.083Z,83.28
2023-04-07T22:17:49.303Z,84.09
2023-04-07T22:20:16.504Z,85.01
2023-04-07T22:22:44.021Z,85.75
2023-04-07T22:25:11.443Z,83.77
2023-04-07T22:27:38.609Z,84.07
2023-04-07T22:30:09.887Z,85.03
2023-04-07T22:32:37.337Z,85.78
2023-04-07T22:35:04.901Z,85.63
2023-04-07T22:37:31.999Z,85.44
2023-04-07T22:39:59.040Z,86.67
2023-04-07T22:42:29.251Z,86.61
2023-04-07T22:44:56.356Z,85.18
2023-04-07T22:47:23.535Z,85.44
2023-04-07T22:49:50.708Z,85.45
2023-04-07T22:52:17.888Z,84.90
2023-04-07T22:54:44.979Z,85.28
2023-04-07T22:57:12.044Z,85.39
2023-04-07T22:59:39.132Z,84.52
2023-04-07T23:02:06.290Z,84.82
2023-04-07T23:04:33.496Z,86.86
2023-04-07T23:07:00.563Z,84.89
2023-04-07T23:09:27.635Z,83.73
2023-04-07T23:11:54.702Z,85.83
2023-04-07T23:14:21.737Z,84.90
2023-04-07T23:16:48.855Z,84.83
2023-04-07T23:19:16.422Z,85.80
2023-04-07T23:21:44.041Z,85.73
2023-04-07T23:24:11.283Z,85.81
2023-04-07T23:26:38.366Z,85.52
2023-04-07T23:29:05.769Z,84.48
2023-04-07T23:31:32.972Z,84.83
2023-04-07T23:34:00.164Z,85.61
2023-04-07T23:36:27.939Z,86.67
2023-04-07T23:38:58.786Z,85.14
2023-04-07T23:41:25.873Z,86.34
2023-04-07T23:43:52.962Z,85.74
2023-04-07T23:46:20.043Z,84.39
2023-04-07T23:48:47.345Z,85.00
2023-04-07T23:51:14.538Z,83.26
2023-04-07T23:53:44.410Z,85.23
2023-04-07T23:56:11.535Z,84.46
2023-04-07T23:58:38.611Z,83.39
